createdAt,value
2023-05-13T00:00:02.222Z,1012.2604577783876
2023-05-13T00:15:01.869Z,1012.1306466045233
2023-05-13T00:30:01.606Z,1012.2319899463563
2023-05-13T00:45:02.227Z,1012.2741184020902
2023-05-13T01:00:01.833Z,1012.3236466288143
2023-05-13T01:15:02.482Z,1012.2777434257104
2023-05-13T01:30:02.137Z,1012.410949154029
2023-05-13T01:45:01.775Z,1012.3769667736356
2023-05-13T02:00:02.426Z,1012.4672613011378
2023-05-13T02:15:02.089Z,1012.3907471025566
2023-05-13T02:30:01.817Z,1012.4016362470614
2023-05-13T02:45:02.485Z,1012.4272583754314
2023-05-13T03:00:02.150Z,1012.3735585786337
2023-05-13T03:15:01.833Z,1012.4290116854166
2023-05-13T03:30:02.504Z,1012.3801603920095
2023-05-13T03:45:02.118Z,1012.4168839442859
2023-05-13T04:00:01.728Z,1012.5031264091838
2023-05-13T04:15:02.297Z,1012.5568437058887
2023-05-13T04:30:02.488Z,1012.6185337704219
2023-05-13T04:45:02.086Z,1012.6738670707444
2023-05-13T05:00:01.679Z,1012.7810434186545
2023-05-13T05:15:02.268Z,1012.8860272756278
2023-05-13T05:30:01.944Z,1012.8613201309382
2023-05-13T05:45:01.544Z,1012.9599477039659
2023-05-13T06:00:02.145Z,1012.9844588078225
2023-05-13T06:15:01.838Z,1012.9164907630776
2023-05-13T06:30:02.548Z,1012.9658254199418
2023-05-13T06:45:02.184Z,1013.0377396015127
2023-05-13T07:00:01.835Z,1013.1114683114994
2023-05-13T07:15:02.434Z,1013.1376636739192
2023-05-13T07:30:02.058Z,1013.1756247657763
2023-05-13T07:45:01.657Z,1013.0855384399016
2023-05-13T08:00:02.287Z,1013.0355257302392
2023-05-13T08:15:01.889Z,1012.9584438914453
2023-05-13T08:30:01.567Z,1012.9987215105987
2023-05-13T08:45:02.229Z,1013.0390894400069
2023-05-13T09:00:01.875Z,1013.0013933706948
2023-05-13T09:15:02.480Z,1012.9990795929605
2023-05-13T09:30:02.190Z,1012.997884122517
2023-05-13T09:45:01.836Z,1012.8995161768196
2023-05-13T10:00:02.487Z,1012.8544000670555
2023-05-13T10:15:02.147Z,1012.7769424411952
2023-05-13T10:30:03.445Z,1012.6662381562826
2023-05-13T10:45:01.589Z,1012.532168408653
2023-05-13T11:00:02.270Z,1012.382938278338
2023-05-13T11:15:01.900Z,1012.3597452079547
2023-05-13T11:30:01.574Z,1012.2666135915788
2023-05-13T11:45:02.239Z,1012.2010284022805
2023-05-13T12:00:01.992Z,1012.2612190771906
2023-05-13T12:15:01.673Z,1012.09953083745
2023-05-13T12:30:02.330Z,1012.0973931494032
2023-05-13T12:45:01.966Z,1012.1945234898362
2023-05-13T13:00:01.566Z,1011.9761022143296
2023-05-13T13:15:02.212Z,1011.8676862340316
2023-05-13T13:30:01.824Z,1011.8385311149207
2023-05-13T13:45:02.446Z,1011.8254840480728
2023-05-13T14:00:02.094Z,1011.7555960587025
2023-05-13T14:15:01.705Z,1012.020105800221
2023-05-13T14:30:02.437Z,1011.8061233618236
2023-05-13T14:45:02.037Z,1011.7326896787106
2023-05-13T15:00:01.697Z,1011.9152091753277
2023-05-13T15:15:02.327Z,1011.8062283163912
2023-05-13T15:30:02.025Z,1011.7064686768957
2023-05-13T15:45:01.628Z,1011.6939623679666
2023-05-13T16:00:02.248Z,1011.4539069588593
2023-05-13T16:15:01.805Z,1011.3204587419906
2023-05-13T16:30:02.407Z,1011.4724065939071
2023-05-13T16:45:02.027Z,1011.3243654516006
2023-05-13T17:00:01.647Z,1011.3426044850384
2023-05-13T17:15:02.306Z,1011.3631555425242
2023-05-13T17:30:01.913Z,1011.331533894053
2023-05-13T17:45:01.615Z,1011.2692720044139
2023-05-13T18:00:02.290Z,1011.3305124903427
2023-05-13T18:15:01.960Z,1011.3634047144797
2023-05-13T18:30:01.562Z,1011.3937538152541
2023-05-13T18:45:02.161Z,1011.4452776570678
2023-05-13T19:00:01.776Z,1011.472848518151
2023-05-13T19:15:02.397Z,1011.5212175725948
2023-05-13T19:30:02.100Z,1011.5931973549374
2023-05-13T19:45:02.168Z,1011.7320295869682
2023-05-13T20:00:01.756Z,1011.784386189483
2023-05-13T20:15:02.345Z,1011.8548888983646
2023-05-13T20:30:02.029Z,1011.867308808702
2023-05-13T20:45:01.644Z,1011.8009084645553
2023-05-13T21:00:02.274Z,1011.8662130996643
2023-05-13T21:15:01.863Z,1011.7472600373538
2023-05-13T21:30:01.577Z,1011.7593690790118
2023-05-13T21:45:02.248Z,1011.8816998506553
2023-05-13T22:00:01.925Z,1011.9227174878885
2023-05-13T22:15:01.541Z,1011.8865242328152
2023-05-13T22:30:02.155Z,1011.902493201704
2023-05-13T22:45:01.751Z,1011.9692372723898
2023-05-13T23:00:02.390Z,1011.9653697679801
2023-05-13T23:15:02.016Z,1011.8238652778393
2023-05-13T23:30:01.926Z,1011.9107846842862
2023-05-13T23:45:01.603Z,1011.7478673240709
